Time,TemperatureF,DewpointF,PressureIn,WindDirection,WindDirectionDegrees,WindSpeedMPH,WindSpeedGustMPH,Humidity,HourlyPrecipIn,Conditions,Clouds,dailyrainin,SoftwareType,DateUTC
2013-11-03 00:11:00,65.8,60.1,29.79,NNW,337,1.7,-999.0,82,-99.99,,,0.00,Acu-Link.com,2013-11-03 04:11:00,
2013-11-03 00:27:00,66.0,60.3,29.78,ENE,67,0.0,-999.0,82,-99.99,,,0.00,Acu-Link.com,2013-11-03 04:27:00,
2013-11-03 00:42:00,65.7,60.4,29.79,WNW,292,0.0,-999.0,83,-99.99,,,0.00,Acu-Link.com,2013-11-03 04:42:00,
2013-11-03 00:57:00,65.5,60.5,29.79,WNW,292,2.7,-999.0,84,-99.99,,,0.00,Acu-Link.com,2013-11-03 04:57:00,
2013-11-03 01:12:00,65.3,60.3,29.79,NNW,337,1.1,-999.0,84,-99.99,,,0.00,Acu-Link.com,2013-11-03 05:12:00,
2013-11-03 01:27:00,65.1,60.1,29.79,NE,45,0.0,-999.0,84,-99.99,,,0.00,Acu-Link.com,2013-11-03 05:27:00,
2013-11-03 01:43:00,64.9,59.9,29.77,West,270,1.7,-999.0,84,-99.99,,,0.00,Acu-Link.com,2013-11-03 05:43:00,
2013-11-03 01:58:00,64.8,59.5,29.78,NW,315,0.0,-999.0,83,-99.99,,,0.00,Acu-Link.com,2013-11-03 05:58:00,
2013-11-03 01:13:00,64.2,59.6,29.78,WSW,247,0.0,-999.0,85,-99.99,,,0.00,Acu-Link.com,2013-11-03 06:13:00,
2013-11-03 01:28:00,63.9,59.3,29.79,ENE,67,0.0,-999.0,85,-99.99,,,0.00,Acu-Link.com,2013-11-03 06:28:00,
2013-11-03 01:43:00,63.5,58.9,29.78,NW,315,0.0,-999.0,85,-99.99,,,0.00,Acu-Link.com,2013-11-03 06:43:00,
2013-11-03 01:58:00,63.1,58.8,29.78,WNW,292,0.0,-999.0,86,-99.99,,,0.00,Acu-Link.com,2013-11-03 06:58:00,
2013-11-03 02:13:00,62.8,58.9,29.78,West,270,0.0,-999.0,87,-99.99,,,0.00,Acu-Link.com,2013-11-03 07:13:00,
2013-11-03 02:29:00,63.1,58.8,29.78,North,0,1.7,-999.0,86,-99.99,,,0.00,Acu-Link.com,2013-11-03 07:29:00,
2013-11-03 02:44:00,63.9,59.3,29.78,NW,315,1.1,-999.0,85,-99.99,,,0.00,Acu-Link.com,2013-11-03 07:44:00,
2013-11-03 02:59:00,64.4,59.1,29.78,NNW,337,0.0,-999.0,83,-99.99,,,0.00,Acu-Link.com,2013-11-03 07:59:00,
2013-11-03 03:14:00,64.6,59.0,29.77,NNE,22,2.2,-999.0,82,-99.99,,,0.00,Acu-Link.com,2013-11-03 08:14:00,
2013-11-03 03:29:00,64.9,58.9,29.78,NNW,337,1.1,-999.0,81,-99.99,,,0.00,Acu-Link.com,2013-11-03 08:29:00,
2013-11-03 03:45:00,64.9,58.9,29.78,South,180,1.1,-999.0,81,-99.99,,,0.00,Acu-Link.com,2013-11-03 08:45:00,
2013-11-03 04:00:00,65.1,58.8,29.77,West,270,0.0,-999.0,80,-99.99,,,0.00,Acu-Link.com,2013-11-03 09:00:00,
2013-11-03 04:15:00,65.1,58.8,29.79,WNW,292,0.0,-999.0,80,-99.99,,,0.00,Acu-Link.com,2013-11-03 09:15:00,
2013-11-03 04:30:00,64.9,58.6,29.79,West,270,0.0,-999.0,80,-99.99,,,0.00,Acu-Link.com,2013-11-03 09:30:00,
2013-11-03 04:45:00,64.6,59.0,29.79,WNW,292,1.7,-999.0,82,-99.99,,,0.00,Acu-Link.com,2013-11-03 09:45:00,
2013-11-03 05:00:00,64.0,59.4,29.79,North,0,2.7,-999.0,85,-99.99,,,0.00,Acu-Link.com,2013-11-03 10:00:00,
2013-11-03 05:15:00,63.5,59.2,29.81,NE,45,1.7,-999.0,86,-99.99,,,0.00,Acu-Link.com,2013-11-03 10:15:00,
2013-11-03 05:30:00,63.1,59.2,29.81,NE,45,0.0,-999.0,87,-99.99,,,0.00,Acu-Link.com,2013-11-03 10:30:00,
2013-11-03 05:46:00,62.4,58.5,29.81,East,90,0.0,-999.0,87,-99.99,,,0.00,Acu-Link.com,2013-11-03 10:46:00,
2013-11-03 06:01:00,61.7,58.1,29.82,NNW,337,0.0,-999.0,88,-99.99,,,0.00,Acu-Link.com,2013-11-03 11:01:00,
2013-11-03 06:16:00,61.0,58.0,29.82,West,270,0.0,-999.0,90,-99.99,,,0.00,Acu-Link.com,2013-11-03 11:16:00,
2013-11-03 06:31:00,60.4,58.1,29.83,SSE,157,0.0,-999.0,92,-99.99,,,0.00,Acu-Link.com,2013-11-03 11:31:00,
2013-11-03 06:47:00,60.1,57.8,29.84,ESE,112,0.0,-999.0,92,-99.99,,,0.00,Acu-Link.com,2013-11-03 11:47:00,
2013-11-03 07:02:00,59.5,57.2,29.84,NW,315,0.0,-999.0,92,-99.99,,,0.00,Acu-Link.com,2013-11-03 12:02:00,
2013-11-03 07:17:00,60.1,57.5,29.85,SW,225,0.0,-999.0,91,-99.99,,,0.00,Acu-Link.com,2013-11-03 12:17:00,
2013-11-03 07:32:00,63.7,58.4,29.85,NW,315,0.0,-999.0,83,-99.99,,,0.00,Acu-Link.com,2013-11-03 12:32:00,
2013-11-03 07:47:00,64.8,58.8,29.86,NW,315,1.1,-999.0,81,-99.99,,,0.00,Acu-Link.com,2013-11-03 12:47:00,
2013-11-03 08:02:00,66.6,59.5,29.87,NW,315,2.2,-999.0,78,-99.99,,,0.00,Acu-Link.com,2013-11-03 13:02:00,
2013-11-03 08:18:00,68.2,60.7,29.87,ENE,67,0.0,-999.0,77,-99.99,,,0.00,Acu-Link.com,2013-11-03 13:18:00,
2013-11-03 08:33:00,70.5,61.8,29.88,ESE,112,1.7,-999.0,74,-99.99,,,0.00,Acu-Link.com,2013-11-03 13:33:00,
2013-11-03 08:48:00,71.8,61.9,29.88,NE,45,0.0,-999.0,71,-99.99,,,0.00,Acu-Link.com,2013-11-03 13:48:00,
2013-11-03 09:03:00,73.0,62.2,29.88,West,270,0.0,-999.0,69,-99.99,,,0.00,Acu-Link.com,2013-11-03 14:03:00,
2013-11-03 09:18:00,73.8,61.7,29.89,NNE,22,1.7,-999.0,66,-99.99,,,0.00,Acu-Link.com,2013-11-03 14:18:00,
2013-11-03 09:33:00,75.6,61.6,29.89,WNW,292,1.7,-999.0,62,-99.99,,,0.00,Acu-Link.com,2013-11-03 14:33:00,
2013-11-03 09:48:00,76.1,59.7,29.89,NE,45,1.7,-999.0,57,-99.99,,,0.00,Acu-Link.com,2013-11-03 14:48:00,
2013-11-03 10:03:00,76.6,58.2,29.88,ENE,67,2.2,-999.0,53,-99.99,,,0.00,Acu-Link.com,2013-11-03 15:03:00,
2013-11-03 10:19:00,77.5,58.5,29.89,NNE,22,1.7,-999.0,52,-99.99,,,0.00,Acu-Link.com,2013-11-03 15:19:00,
2013-11-03 10:34:00,77.5,56.2,29.90,ESE,112,3.7,-999.0,48,-99.99,,,0.00,Acu-Link.com,2013-11-03 15:34:00,
2013-11-03 10:49:00,78.3,57.0,29.90,NW,315,1.1,-999.0,48,-99.99,,,0.00,Acu-Link.com,2013-11-03 15:49:00,
2013-11-03 11:04:00,78.1,55.0,29.89,NNW,337,3.7,-999.0,45,-99.99,,,0.00,Acu-Link.com,2013-11-03 16:04:00,
2013-11-03 11:20:00,78.6,56.1,29.89,WSW,247,1.1,-999.0,46,-99.99,,,0.00,Acu-Link.com,2013-11-03 16:20:00,
2013-11-03 11:35:00,79.2,54.1,29.88,NE,45,2.7,-999.0,42,-99.99,,,0.00,Acu-Link.com,2013-11-03 16:35:00,
2013-11-03 11:50:00,80.8,54.2,29.88,ENE,67,0.0,-999.0,40,-99.99,,,0.00,Acu-Link.com,2013-11-03 16:50:00,
2013-11-03 12:05:00,80.1,54.9,29.88,NE,45,2.2,-999.0,42,-99.99,,,0.00,Acu-Link.com,2013-11-03 17:05:00,
2013-11-03 12:20:00,81.1,56.5,29.87,SE,135,1.7,-999.0,43,-99.99,,,0.00,Acu-Link.com,2013-11-03 17:20:00,
2013-11-03 12:36:00,79.9,53.4,29.86,NNE,22,0.0,-999.0,40,-99.99,,,0.00,Acu-Link.com,2013-11-03 17:36:00,
2013-11-03 12:51:00,79.3,52.2,29.86,WNW,292,6.3,-999.0,39,-99.99,,,0.00,Acu-Link.com,2013-11-03 17:51:00,
2013-11-03 13:06:00,80.1,52.9,29.85,East,90,5.8,-999.0,39,-99.99,,,0.00,Acu-Link.com,2013-11-03 18:06:00,
2013-11-03 13:21:00,79.0,53.3,29.84,East,90,3.2,-999.0,41,-99.99,,,0.00,Acu-Link.com,2013-11-03 18:21:00,
2013-11-03 13:36:00,79.7,53.9,29.84,East,90,4.2,-999.0,41,-99.99,,,0.00,Acu-Link.com,2013-11-03 18:36:00,
2013-11-03 13:51:00,79.0,52.6,29.84,NW,315,7.8,-999.0,40,-99.99,,,0.00,Acu-Link.com,2013-11-03 18:51:00,
2013-11-03 14:06:00,79.2,53.4,29.85,ENE,67,3.7,-999.0,41,-99.99,,,0.00,Acu-Link.com,2013-11-03 19:06:00,
2013-11-03 14:21:00,79.0,53.9,29.84,SSE,157,1.7,-999.0,42,-99.99,,,0.00,Acu-Link.com,2013-11-03 19:21:00,
2013-11-03 14:37:00,77.5,53.2,29.83,East,90,2.2,-999.0,43,-99.99,,,0.00,Acu-Link.com,2013-11-03 19:37:00,
2013-11-03 14:52:00,77.5,53.2,29.84,ESE,112,1.7,-999.0,43,-99.99,,,0.00,Acu-Link.com,2013-11-03 19:52:00,
2013-11-03 15:07:00,77.9,54.2,29.85,NE,45,3.7,-999.0,44,-99.99,,,0.00,Acu-Link.com,2013-11-03 20:07:00,
2013-11-03 15:22:00,77.5,53.8,29.85,West,270,1.7,-999.0,44,-99.99,,,0.00,Acu-Link.com,2013-11-03 20:22:00,
2013-11-03 15:38:00,76.6,54.8,29.84,NNW,337,1.1,-999.0,47,-99.99,,,0.00,Acu-Link.com,2013-11-03 20:38:00,
2013-11-03 15:53:00,76.1,53.8,29.84,SSE,157,1.7,-999.0,46,-99.99,,,0.00,Acu-Link.com,2013-11-03 20:53:00,
2013-11-03 16:08:00,75.6,53.9,29.85,West,270,3.2,-999.0,47,-99.99,,,0.00,Acu-Link.com,2013-11-03 21:08:00,
2013-11-03 16:23:00,74.8,53.2,29.85,ENE,67,5.8,-999.0,47,-99.99,,,0.00,Acu-Link.com,2013-11-03 21:23:00,
2013-11-03 16:38:00,74.5,52.3,29.86,ESE,112,2.2,-999.0,46,-99.99,,,0.00,Acu-Link.com,2013-11-03 21:38:00,
2013-11-03 16:53:00,75.4,52.6,29.86,NE,45,0.0,-999.0,45,-99.99,,,0.00,Acu-Link.com,2013-11-03 21:53:00,
2013-11-03 17:08:00,74.5,51.1,29.86,NE,45,0.0,-999.0,44,-99.99,,,0.00,Acu-Link.com,2013-11-03 22:08:00,
2013-11-03 17:23:00,73.4,52.5,29.86,North,0,0.0,-999.0,48,-99.99,,,0.00,Acu-Link.com,2013-11-03 22:23:00,
2013-11-03 17:39:00,72.1,54.0,29.87,ENE,67,2.2,-999.0,53,-99.99,,,0.00,Acu-Link.com,2013-11-03 22:39:00,
2013-11-03 17:54:00,71.6,55.1,29.86,ENE,67,1.1,-999.0,56,-99.99,,,0.00,Acu-Link.com,2013-11-03 22:54:00,
2013-11-03 18:09:00,71.1,55.6,29.87,NE,45,1.1,-999.0,58,-99.99,,,0.00,Acu-Link.com,2013-11-03 23:09:00,
2013-11-03 18:24:00,70.9,55.8,29.87,North,0,2.7,-999.0,59,-99.99,,,0.00,Acu-Link.com,2013-11-03 23:24:00,
2013-11-03 18:39:00,70.9,57.2,29.88,East,90,0.0,-999.0,62,-99.99,,,0.00,Acu-Link.com,2013-11-03 23:39:00,
2013-11-03 18:54:00,70.3,57.5,29.88,ENE,67,0.0,-999.0,64,-99.99,,,0.00,Acu-Link.com,2013-11-03 23:54:00,
2013-11-03 19:10:00,69.4,57.5,29.90,West,270,0.0,-999.0,66,-99.99,,,0.00,Acu-Link.com,2013-11-04 00:10:00,
2013-11-03 19:25:00,69.1,55.5,29.90,North,0,0.0,-999.0,62,-99.99,,,0.00,Acu-Link.com,2013-11-04 00:25:00,
2013-11-03 19:40:00,69.8,54.3,29.90,NE,45,3.7,-999.0,58,-99.99,,,0.00,Acu-Link.com,2013-11-04 00:40:00,
2013-11-03 19:55:00,70.5,53.5,29.90,East,90,0.0,-999.0,55,-99.99,,,0.00,Acu-Link.com,2013-11-04 00:55:00,
2013-11-03 20:10:00,70.5,53.5,29.91,ENE,67,0.0,-999.0,55,-99.99,,,0.00,Acu-Link.com,2013-11-04 01:10:00,
2013-11-03 20:26:00,70.5,53.0,29.92,NNE,22,2.2,-999.0,54,-99.99,,,0.00,Acu-Link.com,2013-11-04 01:26:00,
2013-11-03 20:41:00,71.1,54.1,29.91,East,90,4.2,-999.0,55,-99.99,,,0.00,Acu-Link.com,2013-11-04 01:41:00,
2013-11-03 20:56:00,71.4,52.3,29.91,NE,45,4.7,-999.0,51,-99.99,,,0.00,Acu-Link.com,2013-11-04 01:56:00,
2013-11-03 21:11:00,71.4,52.8,29.92,NNW,337,4.2,-999.0,52,-99.99,,,0.00,Acu-Link.com,2013-11-04 02:11:00,
2013-11-03 21:26:00,71.4,53.4,29.92,NE,45,0.0,-999.0,53,-99.99,,,0.00,Acu-Link.com,2013-11-04 02:26:00,
2013-11-03 21:42:00,71.4,52.8,29.92,ENE,67,1.1,-999.0,52,-99.99,,,0.00,Acu-Link.com,2013-11-04 02:42:00,
2013-11-03 21:57:00,70.9,53.4,29.92,SE,135,2.2,-999.0,54,-99.99,,,0.00,Acu-Link.com,2013-11-04 02:57:00,
2013-11-03 22:12:00,70.9,52.9,29.92,NE,45,1.7,-999.0,53,-99.99,,,0.00,Acu-Link.com,2013-11-04 03:12:00,
2013-11-03 22:27:00,71.4,52.3,29.92,NE,45,7.8,-999.0,51,-99.99,,,0.00,Acu-Link.com,2013-11-04 03:27:00,
2013-11-03 22:42:00,71.4,52.8,29.92,ENE,67,4.2,-999.0,52,-99.99,,,0.00,Acu-Link.com,2013-11-04 03:42:00,
2013-11-03 22:58:00,72.5,53.9,29.92,ENE,67,1.7,-999.0,52,-99.99,,,0.00,Acu-Link.com,2013-11-04 03:58:00,
2013-11-03 23:13:00,72.7,54.0,29.93,NE,45,3.7,-999.0,52,-99.99,,,0.00,Acu-Link.com,2013-11-04 04:13:00,
2013-11-03 23:28:00,72.3,54.7,29.92,East,90,4.2,-999.0,54,-99.99,,,0.00,Acu-Link.com,2013-11-04 04:28:00,
2013-11-03 23:43:00,72.0,53.9,29.92,ENE,67,3.2,-999.0,53,-99.99,,,0.00,Acu-Link.com,2013-11-04 04:43:00,
2013-11-03 23:58:00,71.8,52.1,29.92,ENE,67,2.2,-999.0,50,-99.99,,,0.00,Acu-Link.com,2013-11-04 04:58:00,